METAR Data
IDs: Format: Raw Decoded Include TAF

Data at: 1331 UTC 14 Dec 2019

KCDA 141316Z AUTO 06007KT 030V100 7SM -RA SCT025 BKN042 OVC048 05/04 A2969 RMK AO2 T00500043
KCDA 141255Z AUTO 00000KT 2 1/2SM -SN SCT026 BKN032 OVC042 05/04 A2970 RMK AO2 VIS 2V5 T00470037
KCDA 141236Z AUTO 03005G15KT 4SM -SN SCT019 OVC028 05/04 A2972 RMK AO2 T00510038
KCDA 141215Z AUTO 04006KT 5SM -SN BKN028 OVC036 04/03 A2974 RMK AO2 T00430033
KCDA 141155Z AUTO 03007KT 350V050 7SM -RA SCT034 BKN045 OVC050 04/04 A2976 RMK AO2 T00430036 10043 20000
KCDA 141136Z AUTO 02007KT 7SM -RA SCT040 BKN046 OVC060 04/04 A2979 RMK AO2 T00420038
KCDA 141115Z AUTO 35005KT 5SM -SN SCT033 BKN041 OVC060 04/04 A2981 RMK AO2 T00390035
KCDA 141055Z AUTO 33003KT 7SM -SN SCT030 BKN037 OVC060 03/03 A2983 RMK AO2 T00330030
KCDA 141036Z AUTO 00000KT 5SM -SN SCT032 BKN038 OVC049 03/02 A2986 RMK AO2 T00260024
KCDA 141016Z AUTO 00000KT 4SM -SN BKN038 OVC049 02/02 A2987 RMK AO2 T00180015
KCDA 140956Z AUTO 00000KT 4SM -RA SCT031 BKN039 OVC045 01/01 A2989 RMK AO2 T00140012
KCDA 140935Z AUTO 25003KT 2 1/2SM -SN BKN037 OVC044 00/00 A2991 RMK AO2 T00030001
KCDA 140915Z AUTO 24003KT 5SM -SN SCT026 BKN033 OVC041 00/00 A2992 RMK AO2 T00030001
KCDA 140855Z AUTO 00000KT 1 1/2SM -SN SCT002 BKN018 OVC030 00/00 A2994 RMK AO2 T00020000
KCDA 140835Z AUTO 00000KT 1 1/4SM -RA BKN002 BKN016 OVC026 00/00 A2996 RMK AO2 T00010000
KCDA 140815Z AUTO 00000KT 1 1/4SM UP SCT002 BKN015 OVC024 00/00 A2998 RMK AO2 T00020001
KCDA 140755Z AUTO 00000KT 1/2SM -RA BKN002 BKN008 OVC015 00/00 A3000 RMK AO2 T00000000
KCDA 140735Z AUTO 00000KT 3/4SM -RA OVC002 00/00 A3002 RMK AO2 T00000000
KCDA 140715Z AUTO 00000KT 1 1/2SM -RA BKN002 OVC017 00/00 A3003 RMK AO2 T00020000
KCDA 140655Z AUTO 00000KT 1 1/4SM -RA BKN002 OVC017 00/00 A3004 RMK AO2 T00010000
KCDA 140636Z AUTO 00000KT 1 1/2SM -RA SCT002 OVC017 00/00 A3005 RMK AO2 T00010000
KCDA 140615Z AUTO 00000KT 5SM -RA SCT002 BKN017 OVC038 00/00 A3006 RMK AO2 T00030001
KCDA 140555Z AUTO 00000KT 7SM -SN BKN002 BKN017 OVC038 00/00 A3008 RMK AO2 T00020000 10003 21007
KCDA 140536Z AUTO 00000KT 7SM -SN BKN004 BKN015 OVC036 00/00 A3008 RMK AO2 T00020000
KCDA 140515Z AUTO 26003KT 1 3/4SM -SN SCT001 BKN013 OVC036 00/00 A3009 RMK AO2 T00000000
KCDA 140455Z AUTO 00000KT 3/4SM -DZ BKN001 OVC011 00/00 A3011 RMK AO2 T00000000 400031075
KCDA 140435Z AUTO 00000KT 3SM -RA SCT001 BKN010 OVC028 00/00 A3013 RMK AO2 T00010000
KCDA 140416Z AUTO 00000KT 3SM -SN OVC010 00/00 A3014 RMK AO2 T00010000
KCDA 140355Z AUTO 14003KT 4SM -SN OVC008 00/00 A3016 RMK AO2 T00010000
KCDA 140335Z AUTO 00000KT 4SM -RA OVC008 00/00 A3016 RMK AO2 T00010000
KCDA 140316Z AUTO 13003KT 4SM -RA OVC008 00/00 A3018 RMK AO2 T00020000
KCDA 140255Z AUTO 00000KT 3SM -SN OVC008 00/00 A3018 RMK AO2 T00010000
KCDA 140235Z AUTO 11003KT 4SM -SN OVC010 00/00 A3019 RMK AO2 T00000000
KCDA 140215Z AUTO 13005KT 5SM UP BKN010 OVC015 00/00 A3020 RMK AO2 T00001002
KCDA 140156Z AUTO 12003KT 4SM -SN OVC012 00/00 A3021 RMK AO2 T00001004
KCDA 140135Z AUTO 11003KT 4SM -SN SCT008 OVC012 00/00 A3022 RMK AO2 T10011005
KCDA 140116Z AUTO 00000KT 2 1/2SM -SN BKN008 OVC012 00/M01 A3023 RMK AO2 T10051008
KCDA 140055Z AUTO 00000KT 3SM -SN OVC008 M01/M01 A3024 RMK AO2 T10061010
KCDA 140036Z AUTO 00000KT 7SM -SN OVC008 M01/M01 A3024 RMK AO2 T10061011
KCDA 140015Z AUTO 14003KT 5SM -SN OVC008 M01/M01 A3025 RMK AO2 T10061011
KCDA 132356Z AUTO 13004KT 5SM -SN OVC008 M01/M01 A3025 RMK AO2 T10071012 11002 21010
KCDA 132335Z AUTO 12003KT 2 1/2SM -SN OVC008 M01/M01 A3025 RMK AO2 T10101015
KCDA 132315Z AUTO 12003KT 1 3/4SM -SN SCT003 OVC008 M01/M02 A3026 RMK AO2 T10101016
KCDA 132255Z AUTO 14003KT 2SM -SN OVC010 M01/M02 A3027 RMK AO2 T10091018
KCDA 132236Z AUTO 13004KT 4SM -SN OVC012 M01/M02 A3027 RMK AO2 T10101020
KCDA 132215Z AUTO 13005KT 4SM -SN OVC014 M01/M02 A3028 RMK AO2 T10081022
KCDA 132156Z AUTO 14005KT 7SM OVC014 M01/M02 A3028 RMK AO2 T10061024
KCDA 132135Z AUTO 14005KT 10SM UP OVC014 00/M02 A3028 RMK AO2 T10041025
KCDA 132115Z AUTO 15005KT 10SM BKN014 OVC019 00/M03 A3029 RMK AO2 T10051026
KCDA 132055Z AUTO 15006KT 10SM UP OVC014 00/M03 A3030 RMK AO2 T10031026
KCDA 132035Z AUTO 16006KT 10SM OVC014 00/M03 A3030 RMK AO2 T10031030
KCDA 132015Z AUTO 13007KT 10SM OVC016 00/M03 A3030 RMK AO2 T10031032
KCDA 131955Z AUTO 15005KT 10SM OVC016 00/M03 A3030 RMK AO2 T10021035
KCDA 131935Z AUTO 14008KT 10SM OVC018 00/M04 A3030 RMK AO2 T10021036
KCDA 131916Z AUTO 15007KT 10SM OVC018 00/M04 A3030 RMK AO2 T10051039
KCDA 131856Z AUTO 14009KT 10SM OVC018 M01/M04 A3031 RMK AO2 T10061040
KCDA 131836Z AUTO 13008KT 10SM OVC018 M01/M04 A3032 RMK AO2 T10071042
KCDA 131815Z AUTO 14007G15KT 10SM OVC018 M01/M05 A3034 RMK AO2 T10101046
KCDA 131756Z AUTO 15008KT 10SM OVC018 M01/M04 A3035 RMK AO2 T10081045 11008 21048
KCDA 131735Z AUTO 15007KT 10SM OVC018 M01/M05 A3036 RMK AO2 T10121048
KCDA 131715Z AUTO 14007KT 10SM OVC018 M01/M05 A3037 RMK AO2 T10151050
KCDA 131635Z AUTO 14009KT 10SM OVC018 M02/M05 A3039 RMK AO2 T10181055
KCDA 131615Z AUTO 14011G20KT 10SM OVC018 M02/M05 A3040 RMK AO2 T10181055
KCDA 131556Z AUTO 15008KT 10SM OVC018 M02/M06 A3040 RMK AO2 T10201056
KCDA 131535Z AUTO 14007KT 10SM OVC018 M02/M06 A3040 RMK AO2 T10251060
KCDA 131515Z AUTO 14008G16KT 10SM OVC018 M02/M06 A3041 RMK AO2 T10251060
KCDA 131455Z AUTO 14011KT 10SM OVC018 M03/M06 A3042 RMK AO2 T10261061
KCDA 131436Z AUTO 13008G14KT 10SM OVC020 M03/M06 A3042 RMK AO2 T10301065
KCDA 131416Z AUTO 13008KT 10SM OVC020 M03/M07 A3041 RMK AO2 T10311066
KCDA 131355Z AUTO 13008G15KT 10SM OVC020 M03/M07 A3042 RMK AO2 T10351069
KCDA 131335Z AUTO 13011G16KT 10SM OVC020 M04/M07 A3041 RMK AO2 T10361071
KCDA 131315Z AUTO 14012G17KT 10SM OVC020 M04/M08 A3041 RMK AO2 T10401076
KCDA 131256Z AUTO 14012G17KT 10SM OVC020 M04/M08 A3042 RMK AO2 T10421079
KCDA 131236Z AUTO 14009KT 10SM BKN022 M04/M08 A3042 RMK AO2 T10431081
KCDA 131216Z AUTO 14010KT 10SM SCT022 M05/M09 A3042 RMK AO2 T10471088
KCDA 131155Z AUTO 13009KT 10SM CLR M05/M09 A3042 RMK AO2 T10481095 11043 21070
KCDA 131136Z AUTO 13010G14KT 10SM CLR M05/M10 A3042 RMK AO2 T10481099
KCDA 131116Z AUTO 14011KT 10SM CLR M05/M10 A3041 RMK AO2 T10461103
KCDA 131055Z AUTO 14011G17KT 10SM CLR M05/M10 A3042 RMK AO2 T10461104
KCDA 131036Z AUTO 14010G19KT 10SM SCT095 M04/M10 A3041 RMK AO2 T10451105
KCDA 131016Z AUTO 13010G14KT 10SM OVC095 M04/M11 A3042 RMK AO2 T10431106
KCDA 130955Z AUTO 14013G17KT 10SM OVC095 M04/M11 A3042 RMK AO2 T10441110
KCDA 130935Z AUTO 15007G15KT 10SM OVC095 M05/M11 A3044 RMK AO2 T10471113
KCDA 130915Z AUTO 14009KT 10SM OVC095 M05/M11 A3044 RMK AO2 T10471114
KCDA 130856Z AUTO 15007G14KT 10SM OVC085 M05/M11 A3045 RMK AO2 T10491114
KCDA 130835Z AUTO 14006KT 10SM BKN085 M05/M11 A3046 RMK AO2 T10501114
KCDA 130815Z AUTO 14007KT 10SM SCT085 M05/M11 A3047 RMK AO2 T10531114
KCDA 130756Z AUTO 14007KT 10SM CLR M05/M12 A3048 RMK AO2 T10521117
KCDA 130735Z AUTO 14009G14KT 10SM CLR M05/M12 A3049 RMK AO2 T10551117
KCDA 130716Z AUTO 14006KT 10SM SCT095 M06/M12 A3050 RMK AO2 T10571117
KCDA 130656Z AUTO 13007KT 10SM BKN095 M06/M12 A3050 RMK AO2 T10631120
KCDA 130635Z AUTO 14007KT 10SM OVC095 M06/M12 A3050 RMK AO2 T10621119
KCDA 130615Z AUTO 14008KT 10SM BKN095 BKN120 M07/M12 A3050 RMK AO2 T10661121
KCDA 130555Z AUTO 14008KT 10SM BKN095 BKN120 M07/M12 A3050 RMK AO2 T10691121 11069 21106
KCDA 130535Z AUTO 14009KT 10SM OVC085 M07/M12 A3050 RMK AO2 T10721121
KCDA 130515Z AUTO 12003KT 10SM OVC085 M07/M12 A3052 RMK AO2 T10741123
KCDA 130456Z AUTO 13005KT 10SM OVC085 M08/M13 A3052 RMK AO2 T10771127 410571106
KCDA 130435Z AUTO 15003KT 10SM OVC085 M07/M13 A3052 RMK AO2 T10751129
KCDA 130415Z AUTO 16004KT 10SM OVC085 M08/M12 A3053 RMK AO2 T10821124
KCDA 130355Z AUTO 17004KT 10SM OVC085 M09/M12 A3053 RMK AO2 T10861125
KCDA 130335Z AUTO 00000KT 10SM OVC085 M09/M12 A3054 RMK AO2 T10901125
KCDA 130315Z AUTO 00000KT 10SM OVC085 M08/M13 A3055 RMK AO2 T10851127
KCDA 130255Z AUTO 00000KT 10SM SCT070 OVC085 M09/M12 A3056 RMK AO2 T10901122
KCDA 130236Z AUTO 00000KT 10SM SCT070 OVC085 M09/M12 A3056 RMK AO2 T10951123
KCDA 130215Z AUTO 00000KT 10SM BKN070 BKN085 M10/M13 A3057 RMK AO2 T11051131
KCDA 130155Z AUTO 07003KT 10SM SCT070 M09/M14 A3059 RMK AO2 T10901136
KCDA 130135Z AUTO 00000KT 10SM CLR M08/M13 A3059 RMK AO2 T10851135